VNKT/KTM METAR and TAF weather

Enter ICAO airport designator
Station Type Date Time Source
VNKT METAR 2023/12/10 22:30 UTC NOAA

VNKT 102230Z VRB02KT 7000 FEW015 08/07 Q1017 NOSIG


Station Type Date Time Source
VNKT Decoded METAR 2023/12/10 22:30 UTC NOAA

Kathmandu Airport, Nepal (VNKT) 27-42N 085-22E 1337M
Dec 10, 2023 - 05:30 PM EST / 2023.12.10 2230 UTC
Wind: Variable at 2 MPH (2 KT):0
Visibility: 4 mile(s):0
Sky conditions: mostly clear
Temperature: 46 F (8 C)
Dew Point: 44 F (7 C)
Relative Humidity: 93%
Pressure (altimeter): 30.03 in. Hg (1017 hPa)
ob: VNKT 102230Z VRB02KT 7000 FEW015 08/07 Q1017 NOSIG
cycle: 22

Station Type Date Time Source
VNKT TAF 2023/12/10 18:57 UTC NOAA

VNKT 101700Z 1018/1118 10003KT 6000 FEW015 SCT100
BECMG 1101/1103 VRB02KT 4500 BR FEW015
BECMG 1104/1105 11003KT 6000 FEW020
BECMG 1108/1109 26008KT 8000 FEW020 SCT100
BECMG 1114/1115 12003KT 7000 FEW015 SCT030

Example: see airport list